sensor_id;sensor_type;location;lat;lon;timestamp;P1;durP1;ratioP1;P2;durP2;ratioP2
3755;SDS011;1893;52.526;13.360;2023-01-24T00:00:04;25.83;;;13.67;;
3755;SDS011;1893;52.526;13.360;2023-01-24T00:02:32;25.00;;;13.00;;
3755;SDS011;1893;52.526;13.360;2023-01-24T00:04:57;26.77;;;13.60;;
3755;SDS011;1893;52.526;13.360;2023-01-24T00:07:23;32.17;;;15.40;;
3755;SDS011;1893;52.526;13.360;2023-01-24T00:09:49;30.17;;;13.63;;
3755;SDS011;1893;52.526;13.360;2023-01-24T00:12:14;27.13;;;15.07;;
3755;SDS011;1893;52.526;13.360;2023-01-24T00:14:40;35.47;;;19.60;;
3755;SDS011;1893;52.526;13.360;2023-01-24T00:17:06;44.33;;;21.17;;
3755;SDS011;1893;52.526;13.360;2023-01-24T00:19:32;26.60;;;14.53;;
3755;SDS011;1893;52.526;13.360;2023-01-24T00:21:59;33.47;;;15.57;;
3755;SDS011;1893;52.526;13.360;2023-01-24T00:24:25;31.10;;;15.83;;
3755;SDS011;1893;52.526;13.360;2023-01-24T00:26:51;28.27;;;14.77;;
3755;SDS011;1893;52.526;13.360;2023-01-24T00:29:17;30.40;;;16.00;;
3755;SDS011;1893;52.526;13.360;2023-01-24T00:31:43;29.57;;;13.97;;
3755;SDS011;1893;52.526;13.360;2023-01-24T00:34:08;24.20;;;14.13;;
3755;SDS011;1893;52.526;13.360;2023-01-24T00:36:34;28.70;;;15.00;;
3755;SDS011;1893;52.526;13.360;2023-01-24T00:38:59;23.63;;;13.30;;
3755;SDS011;1893;52.526;13.360;2023-01-24T00:41:25;35.07;;;15.73;;
3755;SDS011;1893;52.526;13.360;2023-01-24T00:43:50;22.70;;;12.60;;
3755;SDS011;1893;52.526;13.360;2023-01-24T00:46:16;29.33;;;14.80;;
3755;SDS011;1893;52.526;13.360;2023-01-24T00:48:42;26.13;;;13.70;;
3755;SDS011;1893;52.526;13.360;2023-01-24T00:51:07;23.63;;;14.00;;
3755;SDS011;1893;52.526;13.360;2023-01-24T00:53:33;24.53;;;13.13;;
3755;SDS011;1893;52.526;13.360;2023-01-24T00:55:59;26.17;;;12.80;;
3755;SDS011;1893;52.526;13.360;2023-01-24T00:58:24;21.17;;;12.33;;
3755;SDS011;1893;52.526;13.360;2023-01-24T01:00:50;24.47;;;12.93;;
3755;SDS011;1893;52.526;13.360;2023-01-24T01:03:19;19.23;;;11.83;;
3755;SDS011;1893;52.526;13.360;2023-01-24T01:05:44;20.80;;;12.87;;
3755;SDS011;1893;52.526;13.360;2023-01-24T01:08:10;19.10;;;11.53;;
3755;SDS011;1893;52.526;13.360;2023-01-24T01:10:36;15.87;;;11.13;;
3755;SDS011;1893;52.526;13.360;2023-01-24T01:13:03;20.70;;;11.33;;
3755;SDS011;1893;52.526;13.360;2023-01-24T01:15:29;21.13;;;12.80;;
3755;SDS011;1893;52.526;13.360;2023-01-24T01:17:56;21.20;;;12.10;;
3755;SDS011;1893;52.526;13.360;2023-01-24T01:20:23;24.53;;;12.43;;
3755;SDS011;1893;52.526;13.360;2023-01-24T01:22:48;22.07;;;11.83;;
3755;SDS011;1893;52.526;13.360;2023-01-24T01:25:14;24.40;;;12.93;;
3755;SDS011;1893;52.526;13.360;2023-01-24T01:27:39;24.63;;;12.50;;
3755;SDS011;1893;52.526;13.360;2023-01-24T01:30:05;22.10;;;12.60;;
3755;SDS011;1893;52.526;13.360;2023-01-24T01:32:31;19.87;;;10.17;;
3755;SDS011;1893;52.526;13.360;2023-01-24T01:34:57;21.50;;;12.57;;
3755;SDS011;1893;52.526;13.360;2023-01-24T01:37:23;21.63;;;11.37;;
3755;SDS011;1893;52.526;13.360;2023-01-24T01:39:49;18.30;;;11.10;;
3755;SDS011;1893;52.526;13.360;2023-01-24T01:42:14;18.43;;;11.17;;
3755;SDS011;1893;52.526;13.360;2023-01-24T01:44:40;21.47;;;11.63;;
3755;SDS011;1893;52.526;13.360;2023-01-24T01:52:42;20.83;;;10.60;;
3755;SDS011;1893;52.526;13.360;2023-01-24T01:55:10;18.88;;;10.00;;
3755;SDS011;1893;52.526;13.360;2023-01-24T01:57:39;18.92;;;10.38;;
3755;SDS011;1893;52.526;13.360;2023-01-24T02:00:13;19.30;;;9.70;;
3755;SDS011;1893;52.526;13.360;2023-01-24T02:02:52;20.37;;;10.23;;
3755;SDS011;1893;52.526;13.360;2023-01-24T02:05:51;15.17;;;8.57;;
3755;SDS011;1893;52.526;13.360;2023-01-24T02:08:19;15.70;;;8.93;;
3755;SDS011;1893;52.526;13.360;2023-01-24T02:10:47;16.80;;;9.10;;
3755;SDS011;1893;52.526;13.360;2023-01-24T02:13:33;19.93;;;10.27;;
3755;SDS011;1893;52.526;13.360;2023-01-24T02:16:00;16.70;;;9.17;;
3755;SDS011;1893;52.526;13.360;2023-01-24T02:18:29;16.90;;;9.30;;
3755;SDS011;1893;52.526;13.360;2023-01-24T02:20:56;16.90;;;9.77;;
3755;SDS011;1893;52.526;13.360;2023-01-24T02:23:32;18.33;;;10.27;;
3755;SDS011;1893;52.526;13.360;2023-01-24T02:26:14;15.23;;;8.45;;
3755;SDS011;1893;52.526;13.360;2023-01-24T02:31:28;17.00;;;9.30;;
3755;SDS011;1893;52.526;13.360;2023-01-24T02:33:54;16.43;;;9.30;;
3755;SDS011;1893;52.526;13.360;2023-01-24T02:36:28;13.33;;;7.93;;
3755;SDS011;1893;52.526;13.360;2023-01-24T02:39:09;14.65;;;8.63;;
3755;SDS011;1893;52.526;13.360;2023-01-24T02:41:39;17.33;;;9.47;;
3755;SDS011;1893;52.526;13.360;2023-01-24T02:44:10;13.07;;;8.80;;
3755;SDS011;1893;52.526;13.360;2023-01-24T02:46:42;13.17;;;7.93;;
3755;SDS011;1893;52.526;13.360;2023-01-24T02:49:09;13.43;;;8.90;;
3755;SDS011;1893;52.526;13.360;2023-01-24T02:51:36;14.73;;;8.20;;
3755;SDS011;1893;52.526;13.360;2023-01-24T02:54:20;14.33;;;8.57;;
3755;SDS011;1893;52.526;13.360;2023-01-24T02:56:46;13.67;;;8.90;;
3755;SDS011;1893;52.526;13.360;2023-01-24T02:59:50;13.63;;;8.07;;
3755;SDS011;1893;52.526;13.360;2023-01-24T03:02:15;13.30;;;7.90;;
3755;SDS011;1893;52.526;13.360;2023-01-24T03:04:41;10.50;;;7.47;;
3755;SDS011;1893;52.526;13.360;2023-01-24T03:07:06;14.30;;;7.47;;
3755;SDS011;1893;52.526;13.360;2023-01-24T03:09:32;11.07;;;7.53;;
3755;SDS011;1893;52.526;13.360;2023-01-24T03:12:04;11.63;;;7.60;;
3755;SDS011;1893;52.526;13.360;2023-01-24T03:14:50;10.57;;;7.10;;
3755;SDS011;1893;52.526;13.360;2023-01-24T03:17:34;12.00;;;7.50;;
3755;SDS011;1893;52.526;13.360;2023-01-24T03:20:18;15.83;;;8.87;;
3755;SDS011;1893;52.526;13.360;2023-01-24T03:23:02;18.67;;;9.03;;
3755;SDS011;1893;52.526;13.360;2023-01-24T03:25:46;13.70;;;7.90;;
3755;SDS011;1893;52.526;13.360;2023-01-24T03:28:30;11.00;;;7.40;;
3755;SDS011;1893;52.526;13.360;2023-01-24T03:31:14;13.13;;;7.27;;
3755;SDS011;1893;52.526;13.360;2023-01-24T03:33:58;11.87;;;8.40;;
3755;SDS011;1893;52.526;13.360;2023-01-24T03:36:42;12.00;;;7.47;;
3755;SDS011;1893;52.526;13.360;2023-01-24T03:39:09;11.83;;;7.30;;
3755;SDS011;1893;52.526;13.360;2023-01-24T03:41:54;13.40;;;7.50;;
3755;SDS011;1893;52.526;13.360;2023-01-24T03:44:19;14.07;;;7.90;;
3755;SDS011;1893;52.526;13.360;2023-01-24T03:46:45;11.93;;;7.43;;
3755;SDS011;1893;52.526;13.360;2023-01-24T03:49:12;15.40;;;8.00;;
3755;SDS011;1893;52.526;13.360;2023-01-24T03:51:38;11.23;;;7.30;;
3755;SDS011;1893;52.526;13.360;2023-01-24T03:54:22;12.57;;;7.40;;
3755;SDS011;1893;52.526;13.360;2023-01-24T03:56:47;13.20;;;7.97;;
3755;SDS011;1893;52.526;13.360;2023-01-24T03:59:13;12.93;;;7.30;;
3755;SDS011;1893;52.526;13.360;2023-01-24T04:01:39;13.53;;;8.47;;
3755;SDS011;1893;52.526;13.360;2023-01-24T04:04:04;11.77;;;7.90;;
3755;SDS011;1893;52.526;13.360;2023-01-24T04:06:30;11.50;;;7.93;;
3755;SDS011;1893;52.526;13.360;2023-01-24T04:08:56;13.40;;;7.73;;
3755;SDS011;1893;52.526;13.360;2023-01-24T04:11:21;13.33;;;8.37;;
3755;SDS011;1893;52.526;13.360;2023-01-24T04:13:47;10.67;;;7.30;;
3755;SDS011;1893;52.526;13.360;2023-01-24T04:16:12;9.60;;;7.83;;
3755;SDS011;1893;52.526;13.360;2023-01-24T04:18:39;13.20;;;7.83;;
3755;SDS011;1893;52.526;13.360;2023-01-24T04:21:05;13.70;;;8.13;;
3755;SDS011;1893;52.526;13.360;2023-01-24T04:23:31;12.40;;;8.33;;
3755;SDS011;1893;52.526;13.360;2023-01-24T04:25:57;11.97;;;8.33;;
3755;SDS011;1893;52.526;13.360;2023-01-24T04:28:24;15.00;;;7.30;;
3755;SDS011;1893;52.526;13.360;2023-01-24T04:31:00;15.00;;;8.57;;
3755;SDS011;1893;52.526;13.360;2023-01-24T04:33:27;11.23;;;7.13;;
3755;SDS011;1893;52.526;13.360;2023-01-24T04:35:56;10.60;;;8.40;;
3755;SDS011;1893;52.526;13.360;2023-01-24T04:38:23;13.40;;;7.87;;
3755;SDS011;1893;52.526;13.360;2023-01-24T04:40:56;12.50;;;8.33;;
3755;SDS011;1893;52.526;13.360;2023-01-24T04:43:25;14.40;;;8.30;;
3755;SDS011;1893;52.526;13.360;2023-01-24T04:45:54;13.30;;;8.30;;
3755;SDS011;1893;52.526;13.360;2023-01-24T04:48:20;13.90;;;8.77;;
3755;SDS011;1893;52.526;13.360;2023-01-24T04:50:45;11.27;;;7.67;;
3755;SDS011;1893;52.526;13.360;2023-01-24T04:53:11;15.60;;;8.70;;
3755;SDS011;1893;52.526;13.360;2023-01-24T04:55:37;10.93;;;7.17;;
3755;SDS011;1893;52.526;13.360;2023-01-24T04:58:02;12.23;;;8.80;;
3755;SDS011;1893;52.526;13.360;2023-01-24T05:00:28;12.70;;;8.70;;
3755;SDS011;1893;52.526;13.360;2023-01-24T05:02:53;12.40;;;8.20;;
3755;SDS011;1893;52.526;13.360;2023-01-24T05:05:19;14.17;;;8.90;;
3755;SDS011;1893;52.526;13.360;2023-01-24T05:07:45;11.67;;;7.53;;
3755;SDS011;1893;52.526;13.360;2023-01-24T05:10:10;12.10;;;8.40;;
3755;SDS011;1893;52.526;13.360;2023-01-24T05:12:36;17.43;;;8.60;;
3755;SDS011;1893;52.526;13.360;2023-01-24T05:15:02;18.00;;;8.80;;
3755;SDS011;1893;52.526;13.360;2023-01-24T05:17:28;11.67;;;8.20;;
3755;SDS011;1893;52.526;13.360;2023-01-24T05:19:53;15.20;;;8.73;;
3755;SDS011;1893;52.526;13.360;2023-01-24T05:22:19;12.33;;;8.60;;
3755;SDS011;1893;52.526;13.360;2023-01-24T05:24:45;16.60;;;9.70;;
3755;SDS011;1893;52.526;13.360;2023-01-24T05:27:10;14.70;;;8.83;;
3755;SDS011;1893;52.526;13.360;2023-01-24T05:29:36;13.50;;;8.47;;
3755;SDS011;1893;52.526;13.360;2023-01-24T05:32:01;15.10;;;8.93;;
3755;SDS011;1893;52.526;13.360;2023-01-24T05:34:27;13.67;;;9.37;;
3755;SDS011;1893;52.526;13.360;2023-01-24T05:36:53;16.53;;;9.87;;
3755;SDS011;1893;52.526;13.360;2023-01-24T05:39:18;14.07;;;8.13;;
3755;SDS011;1893;52.526;13.360;2023-01-24T05:41:44;11.57;;;8.30;;
3755;SDS011;1893;52.526;13.360;2023-01-24T05:44:09;14.90;;;9.50;;
3755;SDS011;1893;52.526;13.360;2023-01-24T05:46:38;12.93;;;8.50;;
3755;SDS011;1893;52.526;13.360;2023-01-24T05:49:14;17.33;;;9.07;;
3755;SDS011;1893;52.526;13.360;2023-01-24T05:51:40;13.73;;;9.57;;
3755;SDS011;1893;52.526;13.360;2023-01-24T05:54:05;13.50;;;8.50;;
3755;SDS011;1893;52.526;13.360;2023-01-24T05:56:31;12.67;;;8.23;;
3755;SDS011;1893;52.526;13.360;2023-01-24T05:58:57;12.60;;;8.40;;
3755;SDS011;1893;52.526;13.360;2023-01-24T06:01:23;15.73;;;9.13;;
3755;SDS011;1893;52.526;13.360;2023-01-24T06:03:50;11.07;;;8.30;;
3755;SDS011;1893;52.526;13.360;2023-01-24T06:06:17;14.37;;;8.57;;
3755;SDS011;1893;52.526;13.360;2023-01-24T06:08:48;13.23;;;9.10;;
3755;SDS011;1893;52.526;13.360;2023-01-24T06:11:15;12.00;;;8.03;;
3755;SDS011;1893;52.526;13.360;2023-01-24T06:13:50;11.63;;;8.02;;
3755;SDS011;1893;52.526;13.360;2023-01-24T06:16:19;17.40;;;9.60;;
3755;SDS011;1893;52.526;13.360;2023-01-24T06:18:46;10.40;;;7.03;;
3755;SDS011;1893;52.526;13.360;2023-01-24T06:23:53;17.50;;;9.00;;
3755;SDS011;1893;52.526;13.360;2023-01-24T06:26:19;14.33;;;8.63;;
3755;SDS011;1893;52.526;13.360;2023-01-24T06:28:45;17.57;;;9.57;;
3755;SDS011;1893;52.526;13.360;2023-01-24T06:33:51;19.20;;;8.67;;
3755;SDS011;1893;52.526;13.360;2023-01-24T06:36:34;19.53;;;9.67;;
3755;SDS011;1893;52.526;13.360;2023-01-24T06:39:14;17.50;;;7.90;;
3755;SDS011;1893;52.526;13.360;2023-01-24T06:41:41;20.48;;;10.13;;
3755;SDS011;1893;52.526;13.360;2023-01-24T06:44:09;16.42;;;9.48;;
3755;SDS011;1893;52.526;13.360;2023-01-24T06:46:35;24.60;;;10.20;;
3755;SDS011;1893;52.526;13.360;2023-01-24T06:49:10;21.23;;;11.00;;
3755;SDS011;1893;52.526;13.360;2023-01-24T06:51:42;23.53;;;10.87;;
3755;SDS011;1893;52.526;13.360;2023-01-24T06:54:14;23.80;;;10.83;;
3755;SDS011;1893;52.526;13.360;2023-01-24T06:56:41;22.60;;;10.20;;
3755;SDS011;1893;52.526;13.360;2023-01-24T06:59:06;22.63;;;10.93;;
3755;SDS011;1893;52.526;13.360;2023-01-24T07:01:32;26.30;;;11.87;;
3755;SDS011;1893;52.526;13.360;2023-01-24T07:03:57;21.93;;;11.70;;
3755;SDS011;1893;52.526;13.360;2023-01-24T07:06:23;24.47;;;12.03;;
3755;SDS011;1893;52.526;13.360;2023-01-24T07:08:49;29.20;;;12.10;;
3755;SDS011;1893;52.526;13.360;2023-01-24T07:11:15;20.13;;;10.77;;
3755;SDS011;1893;52.526;13.360;2023-01-24T07:13:40;25.73;;;11.47;;
3755;SDS011;1893;52.526;13.360;2023-01-24T07:16:06;33.00;;;12.40;;
3755;SDS011;1893;52.526;13.360;2023-01-24T07:18:31;23.30;;;11.90;;
3755;SDS011;1893;52.526;13.360;2023-01-24T07:20:57;29.93;;;11.57;;
3755;SDS011;1893;52.526;13.360;2023-01-24T07:23:27;34.63;;;13.50;;
3755;SDS011;1893;52.526;13.360;2023-01-24T07:25:57;23.58;;;10.85;;
3755;SDS011;1893;52.526;13.360;2023-01-24T07:28:24;29.13;;;12.05;;
3755;SDS011;1893;52.526;13.360;2023-01-24T07:30:51;27.50;;;13.87;;
3755;SDS011;1893;52.526;13.360;2023-01-24T07:33:17;34.27;;;14.20;;
3755;SDS011;1893;52.526;13.360;2023-01-24T07:35:43;36.20;;;13.80;;
3755;SDS011;1893;52.526;13.360;2023-01-24T07:38:09;35.10;;;12.90;;
3755;SDS011;1893;52.526;13.360;2023-01-24T07:40:36;33.90;;;12.88;;
3755;SDS011;1893;52.526;13.360;2023-01-24T07:43:03;29.67;;;11.53;;
3755;SDS011;1893;52.526;13.360;2023-01-24T07:45:30;22.03;;;11.50;;
3755;SDS011;1893;52.526;13.360;2023-01-24T07:47:57;29.67;;;13.30;;
3755;SDS011;1893;52.526;13.360;2023-01-24T07:50:24;33.07;;;12.80;;
3755;SDS011;1893;52.526;13.360;2023-01-24T07:52:53;34.17;;;13.10;;
3755;SDS011;1893;52.526;13.360;2023-01-24T07:55:20;28.53;;;11.47;;
3755;SDS011;1893;52.526;13.360;2023-01-24T07:57:46;26.77;;;11.63;;
3755;SDS011;1893;52.526;13.360;2023-01-24T08:00:12;27.20;;;11.27;;
3755;SDS011;1893;52.526;13.360;2023-01-24T08:02:39;27.17;;;11.50;;
3755;SDS011;1893;52.526;13.360;2023-01-24T08:05:05;30.60;;;11.83;;
3755;SDS011;1893;52.526;13.360;2023-01-24T08:07:31;27.43;;;12.70;;
3755;SDS011;1893;52.526;13.360;2023-01-24T08:09:57;27.10;;;12.47;;
3755;SDS011;1893;52.526;13.360;2023-01-24T08:12:22;32.03;;;12.37;;
3755;SDS011;1893;52.526;13.360;2023-01-24T08:14:48;27.53;;;12.17;;
3755;SDS011;1893;52.526;13.360;2023-01-24T08:17:13;26.40;;;11.90;;
3755;SDS011;1893;52.526;13.360;2023-01-24T08:19:39;26.07;;;11.80;;
3755;SDS011;1893;52.526;13.360;2023-01-24T08:22:05;27.93;;;11.50;;
3755;SDS011;1893;52.526;13.360;2023-01-24T08:24:31;20.17;;;11.63;;
3755;SDS011;1893;52.526;13.360;2023-01-24T08:26:58;27.73;;;11.00;;
3755;SDS011;1893;52.526;13.360;2023-01-24T08:29:25;30.30;;;12.90;;
3755;SDS011;1893;52.526;13.360;2023-01-24T08:31:51;30.20;;;12.00;;
3755;SDS011;1893;52.526;13.360;2023-01-24T08:34:16;43.40;;;14.17;;
3755;SDS011;1893;52.526;13.360;2023-01-24T08:36:42;33.57;;;14.47;;
3755;SDS011;1893;52.526;13.360;2023-01-24T08:39:08;38.60;;;13.83;;
3755;SDS011;1893;52.526;13.360;2023-01-24T08:41:33;31.50;;;12.50;;
3755;SDS011;1893;52.526;13.360;2023-01-24T08:44:00;36.27;;;12.20;;
3755;SDS011;1893;52.526;13.360;2023-01-24T08:46:27;30.50;;;11.93;;
3755;SDS011;1893;52.526;13.360;2023-01-24T08:48:53;31.98;;;13.07;;
3755;SDS011;1893;52.526;13.360;2023-01-24T08:51:19;34.67;;;13.50;;
3755;SDS011;1893;52.526;13.360;2023-01-24T08:53:44;34.03;;;13.87;;
3755;SDS011;1893;52.526;13.360;2023-01-24T08:56:10;33.23;;;14.20;;
3755;SDS011;1893;52.526;13.360;2023-01-24T08:58:37;34.03;;;14.00;;
3755;SDS011;1893;52.526;13.360;2023-01-24T09:01:06;36.67;;;14.57;;
3755;SDS011;1893;52.526;13.360;2023-01-24T09:03:32;34.87;;;13.63;;
3755;SDS011;1893;52.526;13.360;2023-01-24T09:05:58;44.57;;;13.63;;
3755;SDS011;1893;52.526;13.360;2023-01-24T09:08:24;39.80;;;15.10;;
3755;SDS011;1893;52.526;13.360;2023-01-24T09:10:50;38.90;;;15.23;;
3755;SDS011;1893;52.526;13.360;2023-01-24T09:13:15;34.60;;;13.90;;
3755;SDS011;1893;52.526;13.360;2023-01-24T09:15:41;34.67;;;14.60;;
3755;SDS011;1893;52.526;13.360;2023-01-24T09:18:07;41.50;;;14.27;;
3755;SDS011;1893;52.526;13.360;2023-01-24T09:20:33;46.30;;;17.17;;
3755;SDS011;1893;52.526;13.360;2023-01-24T09:22:59;41.33;;;15.97;;
3755;SDS011;1893;52.526;13.360;2023-01-24T09:25:25;58.80;;;18.23;;
3755;SDS011;1893;52.526;13.360;2023-01-24T09:27:54;47.37;;;16.90;;
3755;SDS011;1893;52.526;13.360;2023-01-24T09:30:21;48.03;;;17.37;;
3755;SDS011;1893;52.526;13.360;2023-01-24T09:32:47;54.67;;;16.73;;
3755;SDS011;1893;52.526;13.360;2023-01-24T09:35:14;50.97;;;17.30;;
3755;SDS011;1893;52.526;13.360;2023-01-24T09:37:40;55.47;;;17.07;;
3755;SDS011;1893;52.526;13.360;2023-01-24T09:40:26;45.07;;;18.87;;
3755;SDS011;1893;52.526;13.360;2023-01-24T09:43:09;50.47;;;18.10;;
3755;SDS011;1893;52.526;13.360;2023-01-24T09:45:47;43.43;;;15.53;;
3755;SDS011;1893;52.526;13.360;2023-01-24T09:48:19;46.78;;;17.35;;
3755;SDS011;1893;52.526;13.360;2023-01-24T09:50:49;46.50;;;18.90;;
3755;SDS011;1893;52.526;13.360;2023-01-24T09:53:23;53.23;;;18.10;;
3755;SDS011;1893;52.526;13.360;2023-01-24T09:55:51;47.13;;;18.40;;
3755;SDS011;1893;52.526;13.360;2023-01-24T10:01:17;45.50;;;18.70;;
3755;SDS011;1893;52.526;13.360;2023-01-24T10:03:43;56.93;;;19.80;;
3755;SDS011;1893;52.526;13.360;2023-01-24T10:06:12;54.53;;;19.30;;
3755;SDS011;1893;52.526;13.360;2023-01-24T10:20:33;55.43;;;18.73;;
3755;SDS011;1893;52.526;13.360;2023-01-24T10:25:50;69.83;;;21.50;;
3755;SDS011;1893;52.526;13.360;2023-01-24T10:28:37;68.43;;;24.27;;
3755;SDS011;1893;52.526;13.360;2023-01-24T10:31:09;71.67;;;23.17;;
3755;SDS011;1893;52.526;13.360;2023-01-24T10:33:46;72.33;;;24.37;;
3755;SDS011;1893;52.526;13.360;2023-01-24T10:39:14;66.70;;;22.67;;
3755;SDS011;1893;52.526;13.360;2023-01-24T10:41:40;57.60;;;23.70;;
3755;SDS011;1893;52.526;13.360;2023-01-24T10:44:11;69.67;;;22.23;;
3755;SDS011;1893;52.526;13.360;2023-01-24T10:49:50;66.23;;;21.60;;
3755;SDS011;1893;52.526;13.360;2023-01-24T10:52:22;66.37;;;22.87;;
3755;SDS011;1893;52.526;13.360;2023-01-24T11:00:16;68.83;;;24.40;;
3755;SDS011;1893;52.526;13.360;2023-01-24T11:02:48;62.90;;;22.33;;
3755;SDS011;1893;52.526;13.360;2023-01-24T11:05:15;75.10;;;23.57;;
3755;SDS011;1893;52.526;13.360;2023-01-24T11:07:47;61.60;;;23.60;;
3755;SDS011;1893;52.526;13.360;2023-01-24T11:10:20;73.03;;;22.50;;
3755;SDS011;1893;52.526;13.360;2023-01-24T11:12:59;66.27;;;21.80;;
3755;SDS011;1893;52.526;13.360;2023-01-24T11:15:32;59.00;;;23.17;;
3755;SDS011;1893;52.526;13.360;2023-01-24T11:17:59;68.23;;;21.83;;
3755;SDS011;1893;52.526;13.360;2023-01-24T11:20:33;55.63;;;21.20;;
3755;SDS011;1893;52.526;13.360;2023-01-24T11:23:04;59.07;;;21.83;;
3755;SDS011;1893;52.526;13.360;2023-01-24T11:25:34;58.10;;;21.00;;
3755;SDS011;1893;52.526;13.360;2023-01-24T11:28:00;66.13;;;22.43;;
3755;SDS011;1893;52.526;13.360;2023-01-24T11:30:26;56.80;;;23.03;;
3755;SDS011;1893;52.526;13.360;2023-01-24T11:33:06;52.63;;;22.20;;
3755;SDS011;1893;52.526;13.360;2023-01-24T11:35:54;64.57;;;22.90;;
3755;SDS011;1893;52.526;13.360;2023-01-24T11:38:26;64.67;;;22.17;;
3755;SDS011;1893;52.526;13.360;2023-01-24T11:43:47;53.60;;;21.00;;
3755;SDS011;1893;52.526;13.360;2023-01-24T11:54:30;53.50;;;20.37;;
3755;SDS011;1893;52.526;13.360;2023-01-24T11:57:19;53.50;;;19.57;;
3755;SDS011;1893;52.526;13.360;2023-01-24T12:05:30;51.70;;;18.50;;
3755;SDS011;1893;52.526;13.360;2023-01-24T12:22:21;53.47;;;17.50;;
3755;SDS011;1893;52.526;13.360;2023-01-24T12:25:50;55.90;;;19.60;;
3755;SDS011;1893;52.526;13.360;2023-01-24T12:27:44;55.27;;;20.70;;
3755;SDS011;1893;52.526;13.360;2023-01-24T12:30:25;51.20;;;19.17;;
3755;SDS011;1893;52.526;13.360;2023-01-24T12:33:17;55.47;;;18.97;;
3755;SDS011;1893;52.526;13.360;2023-01-24T12:35:57;43.93;;;18.90;;
3755;SDS011;1893;52.526;13.360;2023-01-24T12:38:28;49.97;;;17.47;;
3755;SDS011;1893;52.526;13.360;2023-01-24T12:41:18;43.47;;;19.07;;
3755;SDS011;1893;52.526;13.360;2023-01-24T12:49:22;51.33;;;18.43;;
3755;SDS011;1893;52.526;13.360;2023-01-24T12:52:19;49.50;;;18.60;;
3755;SDS011;1893;52.526;13.360;2023-01-24T12:55:00;51.80;;;19.60;;
3755;SDS011;1893;52.526;13.360;2023-01-24T12:57:38;50.10;;;19.33;;
3755;SDS011;1893;52.526;13.360;2023-01-24T13:00:14;41.43;;;17.30;;
3755;SDS011;1893;52.526;13.360;2023-01-24T13:05:42;47.43;;;19.97;;
3755;SDS011;1893;52.526;13.360;2023-01-24T13:08:13;38.60;;;17.67;;
3755;SDS011;1893;52.526;13.360;2023-01-24T13:19:31;49.83;;;19.63;;
3755;SDS011;1893;52.526;13.360;2023-01-24T13:25:19;51.00;;;18.30;;
3755;SDS011;1893;52.526;13.360;2023-01-24T13:28:14;49.30;;;21.17;;
3755;SDS011;1893;52.526;13.360;2023-01-24T13:30:45;55.70;;;21.20;;
3755;SDS011;1893;52.526;13.360;2023-01-24T13:33:37;53.77;;;19.90;;
3755;SDS011;1893;52.526;13.360;2023-01-24T13:36:12;65.13;;;20.47;;
3755;SDS011;1893;52.526;13.360;2023-01-24T13:38:46;43.03;;;18.23;;
3755;SDS011;1893;52.526;13.360;2023-01-24T13:41:14;50.73;;;19.10;;
3755;SDS011;1893;52.526;13.360;2023-01-24T13:49:18;50.90;;;20.20;;
3755;SDS011;1893;52.526;13.360;2023-01-24T13:51:53;50.40;;;19.10;;
3755;SDS011;1893;52.526;13.360;2023-01-24T13:59:28;48.00;;;17.57;;
3755;SDS011;1893;52.526;13.360;2023-01-24T14:01:54;58.33;;;20.17;;
3755;SDS011;1893;52.526;13.360;2023-01-24T14:04:34;38.63;;;18.43;;
3755;SDS011;1893;52.526;13.360;2023-01-24T14:07:16;35.40;;;17.90;;
3755;SDS011;1893;52.526;13.360;2023-01-24T14:10:01;46.43;;;16.93;;
3755;SDS011;1893;52.526;13.360;2023-01-24T14:12:29;44.33;;;16.90;;
3755;SDS011;1893;52.526;13.360;2023-01-24T14:20:04;40.20;;;17.17;;
3755;SDS011;1893;52.526;13.360;2023-01-24T14:22:42;45.53;;;17.23;;
3755;SDS011;1893;52.526;13.360;2023-01-24T14:25:27;38.67;;;15.33;;
3755;SDS011;1893;52.526;13.360;2023-01-24T14:28:18;33.40;;;15.00;;
3755;SDS011;1893;52.526;13.360;2023-01-24T14:36:56;55.87;;;19.33;;
3755;SDS011;1893;52.526;13.360;2023-01-24T14:39:26;37.23;;;14.80;;
3755;SDS011;1893;52.526;13.360;2023-01-24T14:44:35;43.00;;;19.43;;
3755;SDS011;1893;52.526;13.360;2023-01-24T14:47:28;39.17;;;17.10;;
3755;SDS011;1893;52.526;13.360;2023-01-24T14:49:55;41.57;;;17.80;;
3755;SDS011;1893;52.526;13.360;2023-01-24T14:52:28;43.33;;;17.10;;
3755;SDS011;1893;52.526;13.360;2023-01-24T14:54:56;39.50;;;16.00;;
3755;SDS011;1893;52.526;13.360;2023-01-24T15:02:37;34.60;;;16.40;;
3755;SDS011;1893;52.526;13.360;2023-01-24T15:05:31;36.13;;;16.70;;
3755;SDS011;1893;52.526;13.360;2023-01-24T15:08:01;42.43;;;19.00;;
3755;SDS011;1893;52.526;13.360;2023-01-24T15:10:30;44.50;;;17.77;;
3755;SDS011;1893;52.526;13.360;2023-01-24T15:13:02;42.57;;;18.13;;
3755;SDS011;1893;52.526;13.360;2023-01-24T15:15:30;41.57;;;16.10;;
3755;SDS011;1893;52.526;13.360;2023-01-24T15:18:01;48.67;;;18.00;;
3755;SDS011;1893;52.526;13.360;2023-01-24T15:20:28;49.83;;;17.77;;
3755;SDS011;1893;52.526;13.360;2023-01-24T15:22:56;44.13;;;16.97;;
3755;SDS011;1893;52.526;13.360;2023-01-24T15:25:27;41.20;;;17.47;;
3755;SDS011;1893;52.526;13.360;2023-01-24T15:28:07;39.07;;;15.67;;
3755;SDS011;1893;52.526;13.360;2023-01-24T15:30:52;36.67;;;15.17;;
3755;SDS011;1893;52.526;13.360;2023-01-24T15:33:19;39.70;;;16.30;;
3755;SDS011;1893;52.526;13.360;2023-01-24T15:35:45;37.17;;;14.67;;
3755;SDS011;1893;52.526;13.360;2023-01-24T15:43:37;33.57;;;16.07;;
3755;SDS011;1893;52.526;13.360;2023-01-24T15:49:20;39.97;;;17.33;;
3755;SDS011;1893;52.526;13.360;2023-01-24T15:54:31;41.53;;;16.60;;
3755;SDS011;1893;52.526;13.360;2023-01-24T15:56:58;39.57;;;15.63;;
3755;SDS011;1893;52.526;13.360;2023-01-24T15:59:26;41.03;;;18.07;;
3755;SDS011;1893;52.526;13.360;2023-01-24T16:01:52;37.37;;;15.23;;
3755;SDS011;1893;52.526;13.360;2023-01-24T16:04:19;43.30;;;17.10;;
3755;SDS011;1893;52.526;13.360;2023-01-24T16:06:46;42.07;;;16.53;;
3755;SDS011;1893;52.526;13.360;2023-01-24T16:09:12;34.23;;;17.50;;
3755;SDS011;1893;52.526;13.360;2023-01-24T16:11:38;35.33;;;15.57;;
3755;SDS011;1893;52.526;13.360;2023-01-24T16:14:06;36.23;;;16.77;;
3755;SDS011;1893;52.526;13.360;2023-01-24T16:16:35;39.80;;;17.47;;
3755;SDS011;1893;52.526;13.360;2023-01-24T16:19:01;37.93;;;17.50;;
3755;SDS011;1893;52.526;13.360;2023-01-24T16:21:27;32.03;;;16.57;;
3755;SDS011;1893;52.526;13.360;2023-01-24T16:23:52;47.87;;;16.70;;
3755;SDS011;1893;52.526;13.360;2023-01-24T16:26:21;47.27;;;19.13;;
3755;SDS011;1893;52.526;13.360;2023-01-24T16:28:49;42.33;;;16.73;;
3755;SDS011;1893;52.526;13.360;2023-01-24T16:31:16;37.73;;;17.00;;
3755;SDS011;1893;52.526;13.360;2023-01-24T16:33:42;37.43;;;16.43;;
3755;SDS011;1893;52.526;13.360;2023-01-24T16:36:09;41.30;;;19.20;;
3755;SDS011;1893;52.526;13.360;2023-01-24T16:38:37;41.57;;;18.07;;
3755;SDS011;1893;52.526;13.360;2023-01-24T16:41:04;37.30;;;17.13;;
3755;SDS011;1893;52.526;13.360;2023-01-24T16:43:30;39.50;;;16.80;;
3755;SDS011;1893;52.526;13.360;2023-01-24T16:45:55;43.73;;;17.57;;
3755;SDS011;1893;52.526;13.360;2023-01-24T16:48:21;35.47;;;15.87;;
3755;SDS011;1893;52.526;13.360;2023-01-24T16:50:47;42.00;;;16.83;;
3755;SDS011;1893;52.526;13.360;2023-01-24T16:53:13;42.70;;;16.87;;
3755;SDS011;1893;52.526;13.360;2023-01-24T16:55:39;39.93;;;17.63;;
3755;SDS011;1893;52.526;13.360;2023-01-24T16:58:06;39.83;;;16.23;;
3755;SDS011;1893;52.526;13.360;2023-01-24T17:00:32;47.50;;;18.43;;
3755;SDS011;1893;52.526;13.360;2023-01-24T17:02:58;39.07;;;16.63;;
3755;SDS011;1893;52.526;13.360;2023-01-24T17:05:24;46.27;;;17.07;;
3755;SDS011;1893;52.526;13.360;2023-01-24T17:07:52;45.47;;;16.53;;